createdAt,value
2022-12-31T00:01:28.160Z,99699.91
2022-12-31T00:03:55.587Z,99706.22
2022-12-31T00:06:26.432Z,99720.38
2022-12-31T00:08:55.519Z,99719.97
2022-12-31T00:11:24.109Z,99724.91
2022-12-31T00:13:53.196Z,99721.41
2022-12-31T00:16:23.279Z,99717.97
2022-12-31T00:18:52.419Z,99722.09
2022-12-31T00:21:20.506Z,99726.91
2022-12-31T00:23:48.577Z,99728.13
2022-12-31T00:26:17.723Z,99732.25
2022-12-31T00:28:45.446Z,99741.50
2022-12-31T00:31:16.825Z,99738.00
2022-12-31T00:33:44.889Z,99744.94
2022-12-31T00:36:14.359Z,99740.94
2022-12-31T00:38:43.159Z,99746.84
2022-12-31T00:41:10.653Z,99740.94
2022-12-31T00:43:37.793Z,99741.75
2022-12-31T00:46:06.184Z,99738.53
2022-12-31T00:48:35.397Z,99739.59
2022-12-31T00:51:04.175Z,99749.91
2022-12-31T00:53:31.493Z,99744.69
2022-12-31T00:56:02.193Z,99756.56
2022-12-31T00:58:29.380Z,99758.59
2022-12-31T01:00:56.412Z,99758.72
2022-12-31T01:03:23.624Z,99758.59
2022-12-31T01:05:52.291Z,99755.22
2022-12-31T01:08:19.240Z,99755.22
2022-12-31T01:11:07.854Z,99751.09
2022-12-31T01:13:35.031Z,99742.69
2022-12-31T01:16:07.743Z,99740.41
2022-12-31T01:18:34.845Z,99740.41
2022-12-31T01:21:04.789Z,99752.41
2022-12-31T01:23:32.007Z,99747.47
2022-12-31T01:26:00.399Z,99743.59
2022-12-31T01:28:27.892Z,99748.13
2022-12-31T01:30:55.391Z,99747.47
2022-12-31T01:33:22.387Z,99744.13
2022-12-31T01:35:52.153Z,99743.84
2022-12-31T01:38:20.510Z,99742.00
2022-12-31T01:40:47.448Z,99748.00
2022-12-31T01:43:16.871Z,99751.63
2022-12-31T01:45:45.820Z,99749.84
2022-12-31T01:48:15.611Z,99755.78
2022-12-31T01:50:43.221Z,99742.69
2022-12-31T01:53:11.848Z,99750.16
2022-12-31T01:55:46.443Z,99750.84
2022-12-31T01:58:17.429Z,99746.44
2022-12-31T02:00:45.342Z,99745.09
2022-12-31T02:03:13.413Z,99744.56
2022-12-31T02:05:46.441Z,99748.00
2022-12-31T02:08:14.033Z,99744.56
2022-12-31T02:10:42.455Z,99746.72
2022-12-31T02:13:09.746Z,99749.25
2022-12-31T02:15:44.209Z,99746.16
2022-12-31T02:18:16.925Z,99749.88
2022-12-31T02:21:28.229Z,99750.97
2022-12-31T02:24:30.632Z,99740.81
2022-12-31T02:27:07.122Z,99743.22
2022-12-31T02:30:10.623Z,99744.13
2022-12-31T02:33:03.536Z,99742.16
2022-12-31T02:35:41.724Z,99747.09
2022-12-31T02:38:12.923Z,99743.50
2022-12-31T02:40:40.415Z,99745.91
2022-12-31T02:43:07.405Z,99745.47
2022-12-31T02:45:40.210Z,99737.47
2022-12-31T02:48:28.752Z,99747.97
2022-12-31T02:51:05.745Z,99752.13
2022-12-31T02:53:50.190Z,99759.06
2022-12-31T02:56:22.627Z,99757.34
2022-12-31T02:59:17.999Z,99750.66
2022-12-31T03:02:09.326Z,99753.06
2022-12-31T03:04:37.361Z,99764.13
2022-12-31T03:07:06.493Z,99758.38
2022-12-31T03:09:34.504Z,99764.38
2022-12-31T03:12:21.379Z,99760.25
2022-12-31T03:14:48.811Z,99764.25
2022-12-31T03:17:17.261Z,99756.53
2022-12-31T03:20:03.485Z,99761.59
2022-12-31T03:22:30.917Z,99777.44
2022-12-31T03:25:18.961Z,99777.56
2022-12-31T03:27:47.063Z,99778.09
2022-12-31T03:30:15.553Z,99777.28
2022-12-31T03:32:45.615Z,99772.22
2022-12-31T03:35:14.338Z,99783.00
2022-12-31T03:37:41.864Z,99787.03
2022-12-31T03:40:11.973Z,99782.63
2022-12-31T03:42:39.104Z,99787.44
2022-12-31T03:45:07.370Z,99794.13
2022-12-31T03:47:34.551Z,99788.94
2022-12-31T03:50:03.240Z,99772.25
2022-12-31T03:52:30.261Z,99785.59
2022-12-31T03:54:57.214Z,99794.13
2022-12-31T03:57:24.329Z,99796.00
2022-12-31T03:59:51.370Z,99805.19
2022-12-31T04:02:20.923Z,99801.59
2022-12-31T04:04:51.742Z,99797.09
2022-12-31T04:07:20.118Z,99795.22
2022-12-31T04:09:47.074Z,99795.38
2022-12-31T04:12:14.055Z,99800.03
2022-12-31T04:14:41.298Z,99802.03
2022-12-31T04:17:08.286Z,99793.63
2022-12-31T04:19:35.292Z,99797.91
2022-12-31T04:22:02.350Z,99804.69
2022-12-31T04:24:30.861Z,99799.75
2022-12-31T04:27:02.109Z,99796.25
2022-12-31T04:29:32.519Z,99796.50
2022-12-31T04:31:59.543Z,99799.97
2022-12-31T04:34:26.578Z,99797.69
2022-12-31T04:36:53.808Z,99801.16
2022-12-31T04:39:20.769Z,99797.94
2022-12-31T04:41:49.151Z,99807.25
2022-12-31T04:44:16.260Z,99814.84
2022-12-31T04:46:43.318Z,99821.22
2022-12-31T04:49:10.600Z,99822.78
2022-12-31T04:51:38.201Z,99817.97
2022-12-31T04:54:05.607Z,99819.59
2022-12-31T04:56:33.007Z,99814.63
2022-12-31T04:59:01.340Z,99823.84
2022-12-31T05:01:28.328Z,99831.44
2022-12-31T05:03:55.312Z,99835.84
2022-12-31T05:06:23.593Z,99832.03
2022-12-31T05:08:50.921Z,99835.63
2022-12-31T05:11:17.903Z,99839.22
2022-12-31T05:13:44.943Z,99837.75
2022-12-31T05:16:13.340Z,99834.63
2022-12-31T05:18:40.324Z,99826.50
2022-12-31T05:21:07.491Z,99827.41
2022-12-31T05:23:34.717Z,99827.97
2022-12-31T05:26:02.054Z,99829.34
2022-12-31T05:28:29.070Z,99832.00
2022-12-31T05:30:56.255Z,99830.38
2022-12-31T05:33:25.001Z,99838.66
2022-12-31T05:35:51.991Z,99842.00
2022-12-31T05:38:18.919Z,99845.88
2022-12-31T05:40:45.931Z,99855.00
2022-12-31T05:43:14.162Z,99860.97
2022-12-31T05:45:41.156Z,99856.72
2022-12-31T05:48:08.200Z,99858.56
2022-12-31T05:50:36.901Z,99870.44
2022-12-31T05:53:04.305Z,99869.38
2022-12-31T05:55:31.263Z,99868.31
2022-12-31T05:57:58.311Z,99878.22
2022-12-31T06:00:25.233Z,99893.31
2022-12-31T06:02:52.187Z,99893.44
2022-12-31T06:05:25.757Z,99890.25
2022-12-31T06:07:54.559Z,99892.72
2022-12-31T06:10:21.504Z,99890.28
2022-12-31T06:12:48.446Z,99890.06
2022-12-31T06:15:15.610Z,99897.53
2022-12-31T06:17:42.552Z,99898.66
2022-12-31T06:20:13.134Z,99904.00
2022-12-31T06:22:40.417Z,99907.03
2022-12-31T06:25:09.788Z,99913.34
2022-12-31T06:27:36.723Z,99912.63
2022-12-31T06:30:04.302Z,99924.31
2022-12-31T06:32:31.354Z,99922.31
2022-12-31T06:34:58.296Z,99921.94
2022-12-31T06:37:25.244Z,99924.88
2022-12-31T06:39:52.163Z,99920.09
2022-12-31T06:42:20.481Z,99914.38
2022-12-31T06:44:47.461Z,99911.00
2022-12-31T06:47:14.400Z,99915.09
2022-12-31T06:49:41.365Z,99921.88
2022-12-31T06:52:08.505Z,99927.66
2022-12-31T06:54:36.013Z,99918.78
2022-12-31T06:57:05.541Z,99922.19
2022-12-31T06:59:37.692Z,99932.94
2022-12-31T07:02:34.821Z,99933.91
2022-12-31T07:05:27.907Z,99935.06
2022-12-31T07:08:02.011Z,99943.56
2022-12-31T07:10:39.599Z,99940.00
2022-12-31T07:13:39.056Z,99939.69
2022-12-31T07:16:28.503Z,99950.25
2022-12-31T07:19:02.618Z,99956.81
2022-12-31T07:21:34.978Z,99958.88
2022-12-31T07:24:03.002Z,99956.16
2022-12-31T07:26:42.784Z,99950.19
2022-12-31T07:29:19.704Z,99949.06
2022-12-31T07:31:59.535Z,99954.69
2022-12-31T07:34:35.209Z,99960.25
2022-12-31T07:37:08.175Z,99964.88
2022-12-31T07:39:41.760Z,99954.19
2022-12-31T07:42:15.573Z,99958.59
2022-12-31T07:44:52.811Z,99958.47
2022-12-31T07:47:24.388Z,99957.06
2022-12-31T07:49:52.356Z,99974.22
2022-12-31T07:52:20.855Z,99971.28
2022-12-31T07:54:47.892Z,99984.91
2022-12-31T07:57:16.981Z,99980.66
2022-12-31T08:00:03.387Z,99982.72
2022-12-31T08:03:04.170Z,99981.03
2022-12-31T08:05:36.588Z,99981.22
2022-12-31T08:08:15.139Z,99971.06
2022-12-31T08:10:59.951Z,99973.09
2022-12-31T08:13:27.597Z,99987.03
2022-12-31T08:15:55.163Z,99988.41
2022-12-31T08:18:24.235Z,99977.28
2022-12-31T08:21:00.720Z,99966.94
2022-12-31T08:23:33.894Z,99970.91
2022-12-31T08:26:13.954Z,99971.72
2022-12-31T08:28:57.892Z,99970.72
2022-12-31T08:31:33.868Z,99977.53
2022-12-31T08:34:10.679Z,99962.56
2022-12-31T08:36:48.572Z,99959.09
2022-12-31T08:39:29.867Z,99961.66
2022-12-31T08:41:59.003Z,99956.41
2022-12-31T08:44:36.465Z,99964.19
2022-12-31T08:47:16.750Z,99955.28
2022-12-31T08:49:45.601Z,99955.91
2022-12-31T08:52:16.166Z,99962.84
2022-12-31T08:54:43.798Z,99955.25
2022-12-31T08:57:17.952Z,99947.22
2022-12-31T08:59:53.234Z,99942.41
2022-12-31T09:02:32.365Z,99947.94
2022-12-31T09:05:11.549Z,99957.22
2022-12-31T09:07:42.634Z,99940.41
2022-12-31T09:10:20.907Z,99943.25
2022-12-31T09:12:53.917Z,99944.34
2022-12-31T09:15:26.760Z,99937.16
2022-12-31T09:17:54.531Z,99941.84
2022-12-31T09:20:26.257Z,99934.31
2022-12-31T09:22:56.224Z,99936.00
2022-12-31T09:25:25.121Z,99923.28
2022-12-31T09:28:03.500Z,99924.31
2022-12-31T09:30:41.257Z,99920.00
2022-12-31T09:33:12.753Z,99917.69
2022-12-31T09:35:51.234Z,99926.00
2022-12-31T09:38:22.934Z,99917.22
2022-12-31T09:41:00.040Z,99914.94
2022-12-31T09:44:03.388Z,99912.31
2022-12-31T09:47:17.874Z,99898.25
2022-12-31T09:50:16.247Z,99900.50
2022-12-31T09:53:01.876Z,99891.28
2022-12-31T09:55:33.371Z,99892.44
2022-12-31T09:58:12.068Z,99899.22
2022-12-31T10:00:46.888Z,99886.31
2022-12-31T10:03:25.542Z,99882.25
2022-12-31T10:06:24.550Z,99880.88
2022-12-31T10:09:16.335Z,99876.22
2022-12-31T10:12:03.532Z,99874.47
2022-12-31T10:14:47.351Z,99876.59
2022-12-31T10:17:39.828Z,99874.94
2022-12-31T10:20:28.411Z,99861.44
2022-12-31T10:23:08.365Z,99863.97
2022-12-31T10:26:00.352Z,99859.00
2022-12-31T10:28:37.935Z,99858.38
2022-12-31T10:31:14.700Z,99859.72
2022-12-31T10:33:52.281Z,99859.59
2022-12-31T10:36:29.375Z,99864.91
2022-12-31T10:39:14.373Z,99851.84
2022-12-31T10:42:16.836Z,99855.97
2022-12-31T10:45:22.371Z,99849.53
2022-12-31T10:48:29.517Z,99843.97
2022-12-31T10:51:29.606Z,99840.13
2022-12-31T10:54:18.974Z,99835.91
2022-12-31T10:57:16.512Z,99829.28
2022-12-31T11:00:16.156Z,99832.19
2022-12-31T11:03:13.444Z,99828.03
2022-12-31T11:06:20.797Z,99833.88
2022-12-31T11:09:20.106Z,99825.31
2022-12-31T11:11:58.191Z,99819.56
2022-12-31T11:14:53.106Z,99819.00
2022-12-31T11:17:37.599Z,99816.41
2022-12-31T11:20:23.681Z,99816.69
2022-12-31T11:23:01.433Z,99814.88
2022-12-31T11:25:43.768Z,99809.97
2022-12-31T11:28:30.625Z,99810.78
2022-12-31T11:31:13.669Z,99812.56
2022-12-31T11:33:56.484Z,99814.00
2022-12-31T11:36:35.105Z,99823.56
2022-12-31T11:39:34.560Z,99815.91
2022-12-31T11:42:12.103Z,99819.16
2022-12-31T11:44:46.435Z,99822.34
2022-12-31T11:47:32.336Z,99824.06
2022-12-31T11:50:26.277Z,99819.53
2022-12-31T11:53:02.088Z,99816.22
2022-12-31T11:55:38.276Z,99818.84
2022-12-31T11:58:13.095Z,99814.25
2022-12-31T12:00:45.312Z,99811.34
2022-12-31T12:03:13.013Z,99815.78
2022-12-31T12:05:41.451Z,99811.28
2022-12-31T12:08:08.444Z,99812.28
2022-12-31T12:10:42.072Z,99809.19
2022-12-31T12:13:21.996Z,99807.22
2022-12-31T12:15:51.399Z,99798.06
2022-12-31T12:18:29.064Z,99803.44
2022-12-31T12:21:06.134Z,99804.63
2022-12-31T12:23:33.182Z,99809.97
2022-12-31T12:26:00.307Z,99812.50
2022-12-31T12:28:29.576Z,99800.66
2022-12-31T12:30:59.453Z,99795.59
2022-12-31T12:33:29.753Z,99808.63
2022-12-31T12:36:09.166Z,99807.22
2022-12-31T12:38:37.359Z,99809.50
2022-12-31T12:41:06.287Z,99806.59
2022-12-31T12:43:35.327Z,99802.44
2022-12-31T12:46:05.440Z,99809.97
2022-12-31T12:48:41.266Z,99809.16
2022-12-31T12:51:23.672Z,99810.34
2022-12-31T12:54:01.689Z,99804.56
2022-12-31T12:56:37.855Z,99811.47
2022-12-31T12:59:28.155Z,99806.47
2022-12-31T13:02:07.254Z,99813.22
2022-12-31T13:04:59.108Z,99828.53
2022-12-31T13:07:41.239Z,99833.66
2022-12-31T13:10:23.659Z,99840.66
2022-12-31T13:15:53.869Z,99845.78
2022-12-31T13:18:33.266Z,99842.63
2022-12-31T13:21:20.265Z,99846.84
2022-12-31T13:23:54.438Z,99853.41
2022-12-31T13:26:25.649Z,99859.56
2022-12-31T13:28:53.394Z,99857.28
2022-12-31T13:31:26.471Z,99863.47
2022-12-31T13:33:58.552Z,99857.94
2022-12-31T13:36:28.581Z,99862.56
2022-12-31T13:39:02.933Z,99868.09
2022-12-31T13:41:34.755Z,99861.28
2022-12-31T13:44:08.906Z,99863.34
2022-12-31T13:46:44.595Z,99867.19
2022-12-31T13:49:18.850Z,99877.69
2022-12-31T13:51:49.297Z,99876.53
2022-12-31T13:54:30.159Z,99881.63
2022-12-31T13:57:05.774Z,99891.19
2022-12-31T13:59:36.965Z,99889.91
2022-12-31T14:02:16.691Z,99887.63
2022-12-31T14:04:49.840Z,99889.09
2022-12-31T14:07:22.944Z,99887.81
2022-12-31T14:09:51.640Z,99889.41
2022-12-31T14:12:39.969Z,99892.22
2022-12-31T14:15:17.232Z,99896.31
2022-12-31T14:17:50.616Z,99893.31
2022-12-31T14:20:26.163Z,99896.34
2022-12-31T14:23:03.139Z,99891.00
2022-12-31T14:25:37.342Z,99897.84
2022-12-31T14:28:06.855Z,99899.56
2022-12-31T14:30:39.557Z,99901.88
2022-12-31T14:33:20.077Z,99902.22
2022-12-31T14:36:06.773Z,99901.13
2022-12-31T14:38:50.498Z,99907.06
2022-12-31T14:41:34.498Z,99895.63
2022-12-31T14:44:14.389Z,99901.66
2022-12-31T14:46:56.549Z,99913.09
2022-12-31T14:49:35.572Z,99896.19
2022-12-31T14:52:19.576Z,99895.63
2022-12-31T14:54:46.584Z,99905.78
2022-12-31T14:57:24.558Z,99903.03
2022-12-31T14:59:54.277Z,99901.22
2022-12-31T15:02:27.258Z,99897.03
2022-12-31T15:05:11.443Z,99900.22
2022-12-31T15:07:50.694Z,99901.81
2022-12-31T15:10:21.958Z,99904.19
2022-12-31T15:13:01.814Z,99903.34
2022-12-31T15:16:01.425Z,99905.91
2022-12-31T15:18:54.850Z,99919.94
2022-12-31T15:21:37.516Z,99934.38
2022-12-31T15:24:17.850Z,99934.88
2022-12-31T15:26:49.941Z,99937.00
2022-12-31T15:29:28.019Z,99929.44
2022-12-31T15:31:59.058Z,99931.94
2022-12-31T15:34:29.815Z,99929.72
2022-12-31T15:36:59.913Z,99936.59
2022-12-31T15:39:41.263Z,99938.09
2022-12-31T15:42:39.877Z,99935.00
2022-12-31T15:45:18.898Z,99946.28
2022-12-31T15:47:48.700Z,99948.59
2022-12-31T15:50:17.910Z,99954.50
2022-12-31T15:52:50.682Z,99952.03
2022-12-31T15:55:25.446Z,99956.31
2022-12-31T15:57:57.883Z,99956.41
2022-12-31T16:00:36.265Z,99963.25
2022-12-31T16:03:03.586Z,99965.56
2022-12-31T16:05:35.249Z,99963.91
2022-12-31T16:08:02.286Z,99954.50
2022-12-31T16:10:30.936Z,99960.91
2022-12-31T16:12:59.598Z,99963.50
2022-12-31T16:15:30.627Z,99964.38
2022-12-31T16:18:00.288Z,99967.03
2022-12-31T16:20:32.291Z,99968.53
2022-12-31T16:23:01.840Z,99975.34
2022-12-31T16:25:31.897Z,99980.38
2022-12-31T16:28:01.639Z,99974.00
2022-12-31T16:30:32.132Z,99982.88
2022-12-31T16:33:03.181Z,99978.84
2022-12-31T16:35:32.436Z,99979.38
2022-12-31T16:38:10.069Z,99972.34
2022-12-31T16:40:37.059Z,99977.56
2022-12-31T16:43:04.372Z,99979.06
2022-12-31T16:45:35.450Z,99982.47
2022-12-31T16:48:12.788Z,99984.88
2022-12-31T16:50:45.256Z,99976.66
2022-12-31T16:53:17.484Z,99979.09
2022-12-31T16:55:52.063Z,99977.84
2022-12-31T16:58:22.795Z,99976.75
2022-12-31T17:00:51.841Z,99979.66
2022-12-31T17:03:21.633Z,99972.63
2022-12-31T17:06:12.406Z,99975.69
2022-12-31T17:08:41.825Z,99997.06
2022-12-31T17:11:23.997Z,99997.09
2022-12-31T17:14:00.868Z,99988.00
2022-12-31T17:16:29.342Z,99985.00
2022-12-31T17:18:57.938Z,99981.84
2022-12-31T17:21:29.951Z,99982.81
2022-12-31T17:24:00.517Z,99993.72
2022-12-31T17:26:29.949Z,99999.19
2022-12-31T17:28:58.636Z,99996.47
2022-12-31T17:31:33.571Z,99997.94
2022-12-31T17:34:20.651Z,100005.59
2022-12-31T17:36:58.337Z,100010.13
2022-12-31T17:39:26.464Z,100009.31
2022-12-31T17:41:57.277Z,100019.69
2022-12-31T17:44:28.581Z,100010.41
2022-12-31T17:46:57.632Z,100020.16
2022-12-31T17:49:29.622Z,100010.38
2022-12-31T17:51:56.631Z,100015.34
2022-12-31T17:54:23.716Z,100011.00
2022-12-31T17:56:52.021Z,100027.59
2022-12-31T17:59:21.733Z,100020.41
2022-12-31T18:01:49.029Z,100002.00
2022-12-31T18:04:19.074Z,100023.38
2022-12-31T18:06:46.171Z,100025.91
2022-12-31T18:09:13.147Z,100035.16
2022-12-31T18:11:40.959Z,100031.63
2022-12-31T18:14:08.412Z,100026.94
2022-12-31T18:16:35.677Z,100024.84
2022-12-31T18:19:02.980Z,100023.56
2022-12-31T18:21:36.101Z,100021.44
2022-12-31T18:26:33.073Z,100041.84
2022-12-31T18:29:11.385Z,100038.78
2022-12-31T18:31:39.483Z,100050.44
2022-12-31T18:34:06.443Z,100044.13
2022-12-31T18:36:34.768Z,100043.28
2022-12-31T18:39:02.096Z,100043.97
2022-12-31T18:41:35.943Z,100045.06
2022-12-31T18:44:03.367Z,100046.72
2022-12-31T18:46:30.314Z,100041.41
2022-12-31T18:48:57.328Z,100038.56
2022-12-31T18:51:31.435Z,100042.75
2022-12-31T18:54:01.478Z,100048.78
2022-12-31T18:56:28.807Z,100052.31
2022-12-31T18:58:55.920Z,100046.72
2022-12-31T19:01:29.653Z,100044.88
2022-12-31T19:03:58.561Z,100044.66
2022-12-31T19:06:26.441Z,100042.06
2022-12-31T19:08:53.916Z,100038.63
2022-12-31T19:11:23.342Z,100036.81
2022-12-31T19:13:50.641Z,100040.88
2022-12-31T19:16:18.074Z,100037.69
2022-12-31T19:18:46.375Z,100034.34
2022-12-31T19:21:16.593Z,100040.69
2022-12-31T19:23:44.127Z,100039.09
2022-12-31T19:26:15.503Z,100039.66
2022-12-31T19:28:47.676Z,100033.88
2022-12-31T19:31:15.161Z,100034.50
2022-12-31T19:33:42.400Z,100033.31
2022-12-31T19:36:14.672Z,100037.22
2022-12-31T19:38:41.686Z,100033.38
2022-12-31T19:41:15.206Z,100037.44
2022-12-31T19:43:42.234Z,100049.69
2022-12-31T19:46:13.455Z,100051.97
2022-12-31T19:48:40.640Z,100046.53
2022-12-31T19:51:09.852Z,100045.22
2022-12-31T19:53:36.816Z,100046.94
2022-12-31T19:56:04.572Z,100048.03
2022-12-31T19:58:31.736Z,100045.41
2022-12-31T20:01:02.969Z,100051.84
2022-12-31T20:03:32.771Z,100054.03
2022-12-31T20:06:04.781Z,100051.88
2022-12-31T20:08:31.769Z,100048.97
2022-12-31T20:10:59.117Z,100048.28
2022-12-31T20:13:26.663Z,100058.13
2022-12-31T20:15:53.806Z,100043.75
2022-12-31T20:18:22.957Z,100057.34
2022-12-31T20:20:55.884Z,100057.88
2022-12-31T20:23:23.146Z,100055.88
2022-12-31T20:25:57.151Z,100050.94
2022-12-31T20:28:24.215Z,100054.84
2022-12-31T20:30:51.763Z,100057.00
2022-12-31T20:33:20.586Z,100060.78
2022-12-31T20:35:47.652Z,100065.31
2022-12-31T20:38:16.036Z,100060.34
2022-12-31T20:40:46.743Z,100058.09
2022-12-31T20:43:14.110Z,100064.81
2022-12-31T20:45:41.277Z,100065.03
2022-12-31T20:48:08.509Z,100059.94
2022-12-31T20:50:35.919Z,100058.31
2022-12-31T20:53:03.163Z,100058.47
2022-12-31T20:55:32.337Z,100063.03
2022-12-31T20:58:00.596Z,100064.66
2022-12-31T21:00:28.070Z,100063.44
2022-12-31T21:03:04.983Z,100058.63
2022-12-31T21:05:37.792Z,100068.56
2022-12-31T21:08:05.006Z,100057.81
2022-12-31T21:10:34.544Z,100072.56
2022-12-31T21:13:01.498Z,100062.78
2022-12-31T21:15:28.686Z,100068.94
2022-12-31T21:17:55.849Z,100074.03
2022-12-31T21:20:23.014Z,100074.97
2022-12-31T21:22:50.807Z,100077.50
2022-12-31T21:25:17.774Z,100077.50
2022-12-31T21:27:46.192Z,100078.44
2022-12-31T21:30:19.065Z,100078.31
2022-12-31T21:32:47.595Z,100080.84
2022-12-31T21:35:42.209Z,100081.00
2022-12-31T21:38:01.733Z,100093.84
2022-12-31T21:40:28.753Z,100091.56
2022-12-31T21:42:57.223Z,100087.41
2022-12-31T21:45:25.038Z,100085.13
2022-12-31T21:48:13.382Z,100079.91
2022-12-31T21:50:40.337Z,100089.28
2022-12-31T21:53:07.316Z,100088.19
2022-12-31T21:55:56.156Z,100090.09
2022-12-31T21:58:26.304Z,100083.38
2022-12-31T22:01:13.156Z,100093.03
2022-12-31T22:03:40.743Z,100088.19
2022-12-31T22:06:10.571Z,100095.41
2022-12-31T22:08:39.728Z,100095.13
2022-12-31T22:11:07.201Z,100091.94
2022-12-31T22:13:36.189Z,100094.72
2022-12-31T22:16:05.687Z,100102.47
2022-12-31T22:18:35.012Z,100106.88
2022-12-31T22:21:03.792Z,100095.09
2022-12-31T22:23:31.231Z,100086.66
2022-12-31T22:25:58.207Z,100086.91
2022-12-31T22:28:37.940Z,100080.25
2022-12-31T22:31:08.044Z,100082.38
2022-12-31T22:33:35.218Z,100083.56
2022-12-31T22:36:04.251Z,100070.44
2022-12-31T22:38:31.669Z,100073.38
2022-12-31T22:41:05.696Z,100074.97
2022-12-31T22:43:33.328Z,100063.06
2022-12-31T22:46:08.058Z,100059.59
2022-12-31T22:48:35.190Z,100066.16
2022-12-31T22:51:02.099Z,100074.06
2022-12-31T22:53:29.055Z,100067.50
2022-12-31T22:55:56.514Z,100070.03
2022-12-31T22:58:24.369Z,100065.88
2022-12-31T23:00:52.039Z,100073.63
2022-12-31T23:03:20.472Z,100062.22
2022-12-31T23:05:51.842Z,100061.56
2022-12-31T23:08:23.336Z,100057.66
2022-12-31T23:11:05.904Z,100061.53
2022-12-31T23:13:56.487Z,100070.34
2022-12-31T23:16:43.657Z,100073.53
2022-12-31T23:19:31.082Z,100073.78
2022-12-31T23:22:16.776Z,100072.28
2022-12-31T23:24:43.748Z,100069.19
2022-12-31T23:27:11.343Z,100073.97
2022-12-31T23:29:46.063Z,100081.03
2022-12-31T23:32:14.490Z,100077.94
2022-12-31T23:34:43.688Z,100080.63
2022-12-31T23:37:10.737Z,100082.72
2022-12-31T23:39:37.707Z,100077.78
2022-12-31T23:42:05.045Z,100078.72
2022-12-31T23:44:31.951Z,100078.00
2022-12-31T23:46:58.922Z,100075.84
2022-12-31T23:49:25.981Z,100074.38
2022-12-31T23:51:54.298Z,100077.84
2022-12-31T23:54:21.328Z,100080.38
2022-12-31T23:56:48.290Z,100076.38
2022-12-31T23:59:15.362Z,100075.44
